createdAt,value
2023-02-17T00:01:13.040Z,3.30
2023-02-17T00:03:40.729Z,3.30
2023-02-17T00:06:09.900Z,3.30
2023-02-17T00:08:37.794Z,3.30
2023-02-17T00:11:05.440Z,3.30
2023-02-17T00:13:34.044Z,3.30
2023-02-17T00:16:06.363Z,3.30
2023-02-17T00:18:33.815Z,3.20
2023-02-17T00:21:00.890Z,3.20
2023-02-17T00:23:28.113Z,3.20
2023-02-17T00:25:55.157Z,3.20
2023-02-17T00:28:22.394Z,3.20
2023-02-17T00:30:49.404Z,3.20
2023-02-17T00:33:17.005Z,3.40
2023-02-17T00:35:43.958Z,3.40
2023-02-17T00:38:11.181Z,3.40
2023-02-17T00:40:38.979Z,3.50
2023-02-17T00:43:06.480Z,3.50
2023-02-17T00:45:33.742Z,3.50
2023-02-17T00:48:01.294Z,3.60
2023-02-17T00:50:28.215Z,3.50
2023-02-17T00:52:55.404Z,3.50
2023-02-17T00:55:22.375Z,3.50
2023-02-17T00:57:49.826Z,3.40
2023-02-17T01:00:17.327Z,3.40
2023-02-17T01:02:44.609Z,3.30
2023-02-17T01:05:11.689Z,3.40
2023-02-17T01:07:39.241Z,3.30
2023-02-17T01:10:06.763Z,3.30
2023-02-17T01:12:34.462Z,3.20
2023-02-17T01:15:01.798Z,3.30
2023-02-17T01:17:29.059Z,3.20
2023-02-17T01:19:57.022Z,3.30
2023-02-17T01:22:24.595Z,3.30
2023-02-17T01:24:51.521Z,3.30
2023-02-17T01:27:18.765Z,3.30
2023-02-17T01:29:46.562Z,3.30
2023-02-17T01:32:14.042Z,3.30
2023-02-17T01:34:41.061Z,3.30
2023-02-17T01:37:08.632Z,3.30
2023-02-17T01:39:35.681Z,3.30
2023-02-17T01:42:03.118Z,3.20
2023-02-17T01:44:32.641Z,3.30
2023-02-17T01:47:00.155Z,3.30
2023-02-17T01:49:30.443Z,3.30
2023-02-17T01:52:08.080Z,3.30
2023-02-17T01:54:49.037Z,3.40
2023-02-17T01:57:20.357Z,3.40
2023-02-17T01:59:48.067Z,3.40
2023-02-17T02:02:15.955Z,3.40
2023-02-17T02:04:46.864Z,3.50
2023-02-17T02:07:26.033Z,3.60
2023-02-17T02:09:56.371Z,3.50
2023-02-17T02:12:29.779Z,3.50
2023-02-17T02:15:09.159Z,3.60
2023-02-17T02:17:43.807Z,3.60
2023-02-17T02:20:43.789Z,3.60
2023-02-17T02:23:23.662Z,3.60
2023-02-17T02:25:59.709Z,3.60
2023-02-17T02:28:35.760Z,3.60
2023-02-17T02:31:21.527Z,3.60
2023-02-17T02:34:02.482Z,3.60
2023-02-17T02:36:46.739Z,3.60
2023-02-17T02:39:16.049Z,3.60
2023-02-17T02:41:51.036Z,3.60
2023-02-17T02:44:20.907Z,3.60
2023-02-17T02:47:35.910Z,3.60
2023-02-17T02:50:03.439Z,3.60
2023-02-17T02:52:39.820Z,3.60
2023-02-17T02:55:23.258Z,3.60
2023-02-17T02:58:17.476Z,3.50
2023-02-17T03:00:54.114Z,3.50
2023-02-17T03:04:07.585Z,3.50
2023-02-17T03:06:53.794Z,3.50
2023-02-17T03:09:27.383Z,3.50
2023-02-17T03:11:57.120Z,3.50
2023-02-17T03:14:24.600Z,3.50
2023-02-17T03:16:52.839Z,3.50
2023-02-17T03:19:23.442Z,3.50
2023-02-17T03:21:58.863Z,3.60
2023-02-17T03:24:26.067Z,3.50
2023-02-17T03:26:53.335Z,3.50
2023-02-17T03:29:20.358Z,3.50
2023-02-17T03:31:47.898Z,3.50
2023-02-17T03:34:14.881Z,3.60
2023-02-17T03:36:42.102Z,3.50
2023-02-17T03:39:09.044Z,3.50
2023-02-17T03:41:36.404Z,3.50
2023-02-17T03:44:03.553Z,3.50
2023-02-17T03:46:31.125Z,3.50
2023-02-17T03:48:58.172Z,3.50
2023-02-17T03:51:25.981Z,3.50
2023-02-17T03:53:53.388Z,3.60
2023-02-17T03:56:20.949Z,3.60
2023-02-17T03:58:47.975Z,3.50
2023-02-17T04:01:15.809Z,3.60
2023-02-17T04:03:43.067Z,3.60
2023-02-17T04:06:11.835Z,3.60
2023-02-17T04:08:40.115Z,3.70
2023-02-17T04:11:09.438Z,3.70
2023-02-17T04:13:37.604Z,3.70
2023-02-17T04:16:08.996Z,3.70
2023-02-17T04:18:36.928Z,3.70
2023-02-17T04:21:05.576Z,3.70
2023-02-17T04:23:34.002Z,3.80
2023-02-17T04:26:01.449Z,3.80
2023-02-17T04:28:28.434Z,3.80
2023-02-17T04:30:58.451Z,3.80
2023-02-17T04:33:26.314Z,3.80
2023-02-17T04:35:59.491Z,3.80
2023-02-17T04:38:29.189Z,3.90
2023-02-17T04:40:57.507Z,3.90
2023-02-17T04:43:26.349Z,3.90
2023-02-17T04:45:54.237Z,3.90
2023-02-17T04:48:21.944Z,3.90
2023-02-17T04:50:49.147Z,3.90
2023-02-17T04:53:16.538Z,3.90
2023-02-17T04:55:43.804Z,4.00
2023-02-17T04:58:11.050Z,4.00
2023-02-17T05:00:38.358Z,4.00
2023-02-17T05:03:05.507Z,4.00
2023-02-17T05:05:32.854Z,4.00
2023-02-17T05:07:59.853Z,4.00
2023-02-17T05:10:27.193Z,4.00
2023-02-17T05:12:54.209Z,4.00
2023-02-17T05:15:21.511Z,4.00
2023-02-17T05:17:48.446Z,4.00
2023-02-17T05:20:15.663Z,4.00
2023-02-17T05:22:42.588Z,4.00
2023-02-17T05:25:10.009Z,4.00
2023-02-17T05:27:37.121Z,4.10
2023-02-17T05:30:05.525Z,4.00
2023-02-17T05:32:32.743Z,4.10
2023-02-17T05:35:00.014Z,4.10
2023-02-17T05:37:27.586Z,4.10
2023-02-17T05:39:54.801Z,4.10
2023-02-17T05:42:21.884Z,4.10
2023-02-17T05:44:49.401Z,4.00
2023-02-17T05:47:16.405Z,4.00
2023-02-17T05:49:43.648Z,3.90
2023-02-17T05:52:10.626Z,3.90
2023-02-17T05:54:37.894Z,4.00
2023-02-17T05:57:05.153Z,4.00
2023-02-17T05:59:32.552Z,4.00
2023-02-17T06:01:59.489Z,4.10
2023-02-17T06:04:27.034Z,4.10
2023-02-17T06:06:54.040Z,4.10
2023-02-17T06:09:21.303Z,4.20
2023-02-17T06:11:48.254Z,4.20
2023-02-17T06:14:15.460Z,4.20
2023-02-17T06:16:42.654Z,4.20
2023-02-17T06:19:09.987Z,4.30
2023-02-17T06:21:37.341Z,4.30
2023-02-17T06:24:04.854Z,4.30
2023-02-17T06:26:31.842Z,4.30
2023-02-17T06:28:59.140Z,4.20
2023-02-17T06:31:26.268Z,4.20
2023-02-17T06:33:53.733Z,4.10
2023-02-17T06:36:20.792Z,4.10
2023-02-17T06:38:48.183Z,4.10
2023-02-17T06:41:15.369Z,4.00
2023-02-17T06:43:42.619Z,4.00
2023-02-17T06:46:10.083Z,3.90
2023-02-17T06:48:37.652Z,3.90
2023-02-17T06:51:04.983Z,3.90
2023-02-17T06:53:32.331Z,3.90
2023-02-17T06:55:59.326Z,4.00
2023-02-17T06:58:26.695Z,4.00
2023-02-17T07:00:53.714Z,4.00
2023-02-17T07:03:21.230Z,4.00
2023-02-17T07:05:48.485Z,3.90
2023-02-17T07:08:15.835Z,4.00
2023-02-17T07:10:42.837Z,4.00
2023-02-17T07:13:10.147Z,4.00
2023-02-17T07:15:37.204Z,4.00
2023-02-17T07:18:04.847Z,4.00
2023-02-17T07:20:32.214Z,4.00
2023-02-17T07:23:01.157Z,4.00
2023-02-17T07:25:28.361Z,4.10
2023-02-17T07:27:55.827Z,4.10
2023-02-17T07:30:23.138Z,4.10
2023-02-17T07:32:50.510Z,4.20
2023-02-17T07:35:17.914Z,4.30
2023-02-17T07:37:45.142Z,4.30
2023-02-17T07:40:12.649Z,4.40
2023-02-17T07:42:40.049Z,4.50
2023-02-17T07:45:07.277Z,4.60
2023-02-17T07:47:34.789Z,4.60
2023-02-17T07:50:01.735Z,4.60
2023-02-17T07:52:29.438Z,4.70
2023-02-17T07:54:56.506Z,4.70
2023-02-17T07:57:23.908Z,4.70
2023-02-17T07:59:50.936Z,4.70
2023-02-17T08:02:18.428Z,4.70
2023-02-17T08:04:45.584Z,4.70
2023-02-17T08:07:14.303Z,4.80
2023-02-17T08:09:59.754Z,4.80
2023-02-17T08:12:45.883Z,4.90
2023-02-17T08:15:13.228Z,4.90
2023-02-17T08:17:40.532Z,5.00
2023-02-17T08:20:09.484Z,5.00
2023-02-17T08:22:37.665Z,5.00
2023-02-17T08:25:06.320Z,5.00
2023-02-17T08:27:34.123Z,5.00
2023-02-17T08:30:01.218Z,5.00
2023-02-17T08:32:28.666Z,5.10
2023-02-17T08:34:56.790Z,5.10
2023-02-17T08:37:25.572Z,5.10
2023-02-17T08:39:53.346Z,5.20
2023-02-17T08:42:20.684Z,5.30
2023-02-17T08:44:47.737Z,5.30
2023-02-17T08:47:15.386Z,5.40
2023-02-17T08:49:43.892Z,5.40
2023-02-17T08:52:11.224Z,5.40
2023-02-17T08:54:38.639Z,5.50
2023-02-17T08:57:06.151Z,5.50
2023-02-17T08:59:33.189Z,5.40
2023-02-17T09:02:00.768Z,5.50
2023-02-17T09:04:27.919Z,5.50
2023-02-17T09:06:58.640Z,5.50
2023-02-17T09:09:27.433Z,5.60
2023-02-17T09:11:57.326Z,5.70
2023-02-17T09:14:24.762Z,5.90
2023-02-17T09:16:52.501Z,5.90
2023-02-17T09:19:19.811Z,6.00
2023-02-17T09:21:48.401Z,6.10
2023-02-17T09:24:17.186Z,6.20
2023-02-17T09:26:44.338Z,6.20
2023-02-17T09:29:12.208Z,6.30
2023-02-17T09:31:39.328Z,6.20
2023-02-17T09:34:06.773Z,6.30
2023-02-17T09:36:39.606Z,6.30
2023-02-17T09:39:07.247Z,6.30
2023-02-17T09:41:41.869Z,6.30
2023-02-17T09:44:21.089Z,6.30
2023-02-17T09:47:01.381Z,6.30
2023-02-17T09:49:39.635Z,6.40
2023-02-17T09:52:28.771Z,6.30
2023-02-17T09:55:34.466Z,6.30
2023-02-17T09:58:22.300Z,6.30
2023-02-17T10:00:54.608Z,6.40
2023-02-17T10:03:31.049Z,6.50
2023-02-17T10:06:19.054Z,6.40
2023-02-17T10:08:55.274Z,6.50
2023-02-17T10:11:31.781Z,6.50
2023-02-17T10:14:09.379Z,6.50
2023-02-17T10:16:43.856Z,6.50
2023-02-17T10:19:51.871Z,6.50
2023-02-17T10:22:22.406Z,6.50
2023-02-17T10:24:49.595Z,6.50
2023-02-17T10:27:36.266Z,6.50
2023-02-17T10:30:26.510Z,6.50
2023-02-17T10:33:20.003Z,6.60
2023-02-17T10:35:52.748Z,6.70
2023-02-17T10:38:46.347Z,6.70
2023-02-17T10:41:18.538Z,6.80
2023-02-17T10:43:46.454Z,6.70
2023-02-17T10:46:17.265Z,6.70
2023-02-17T10:48:51.132Z,6.70
2023-02-17T10:51:23.628Z,6.70
2023-02-17T10:54:07.782Z,6.60
2023-02-17T10:56:38.246Z,6.60
2023-02-17T10:59:23.781Z,6.60
2023-02-17T11:01:51.324Z,6.60
2023-02-17T11:04:18.698Z,6.50
2023-02-17T11:06:50.943Z,6.40
2023-02-17T11:09:32.786Z,6.30
2023-02-17T11:12:10.702Z,6.30
2023-02-17T11:14:43.816Z,6.30
2023-02-17T11:17:38.343Z,6.40
2023-02-17T11:20:27.102Z,6.40
2023-02-17T11:23:16.229Z,6.40
2023-02-17T11:25:54.481Z,6.40
2023-02-17T11:28:24.130Z,6.50
2023-02-17T11:31:02.491Z,6.50
2023-02-17T11:33:38.489Z,6.50
2023-02-17T11:36:07.933Z,6.40
2023-02-17T11:38:38.234Z,6.50
2023-02-17T11:41:08.096Z,6.50
2023-02-17T11:43:36.086Z,6.50
2023-02-17T11:46:21.426Z,6.60
2023-02-17T11:49:13.236Z,6.60
2023-02-17T11:51:46.061Z,6.60
2023-02-17T11:54:21.375Z,6.70
2023-02-17T11:57:35.375Z,6.70
2023-02-17T12:00:14.890Z,6.70
2023-02-17T12:03:10.306Z,6.70
2023-02-17T12:05:40.444Z,6.70
2023-02-17T12:08:33.855Z,6.70
2023-02-17T12:11:37.054Z,6.70
2023-02-17T12:14:13.090Z,6.70
2023-02-17T12:16:55.607Z,6.70
2023-02-17T12:19:57.577Z,6.80
2023-02-17T12:22:41.728Z,6.90
2023-02-17T12:25:20.892Z,6.90
2023-02-17T12:28:38.415Z,6.80
2023-02-17T12:31:57.582Z,6.80
2023-02-17T12:34:37.111Z,6.80
2023-02-17T12:37:06.680Z,6.80
2023-02-17T12:39:48.289Z,6.90
2023-02-17T12:42:18.782Z,6.90
2023-02-17T12:44:53.134Z,7.00
2023-02-17T12:47:46.796Z,7.10
2023-02-17T12:50:46.518Z,7.20
2023-02-17T12:53:42.034Z,7.30
2023-02-17T12:56:26.663Z,7.30
2023-02-17T12:58:59.227Z,7.30
2023-02-17T13:01:31.377Z,7.30
2023-02-17T13:04:03.132Z,7.30
2023-02-17T13:06:43.196Z,7.30
2023-02-17T13:09:34.646Z,7.30
2023-02-17T13:12:17.473Z,7.30
2023-02-17T13:14:53.588Z,7.30
2023-02-17T13:17:51.884Z,7.30
2023-02-17T13:20:19.065Z,7.20
2023-02-17T13:22:46.947Z,7.20
2023-02-17T13:25:30.463Z,7.20
2023-02-17T13:27:59.514Z,7.20
2023-02-17T13:30:39.985Z,7.10
2023-02-17T13:33:20.797Z,7.10
2023-02-17T13:35:48.672Z,7.00
2023-02-17T13:38:28.365Z,6.90
2023-02-17T13:41:01.351Z,7.00
2023-02-17T13:43:33.145Z,6.90
2023-02-17T13:46:03.640Z,6.90
2023-02-17T13:48:33.735Z,6.90
2023-02-17T13:51:03.927Z,6.90
2023-02-17T13:53:40.642Z,6.90
2023-02-17T13:56:23.768Z,6.90
2023-02-17T13:58:50.808Z,6.90
2023-02-17T14:01:22.527Z,6.90
2023-02-17T14:03:52.506Z,6.90
2023-02-17T14:06:28.318Z,6.80
2023-02-17T14:08:56.449Z,6.90
2023-02-17T14:11:26.789Z,6.90
2023-02-17T14:13:56.692Z,6.90
2023-02-17T14:16:35.798Z,6.90
2023-02-17T14:19:13.228Z,6.90
2023-02-17T14:21:56.920Z,7.00
2023-02-17T14:24:25.442Z,7.00
2023-02-17T14:27:01.086Z,7.00
2023-02-17T14:29:42.943Z,7.00
2023-02-17T14:32:37.564Z,7.00
2023-02-17T14:35:09.128Z,7.00
2023-02-17T14:37:36.947Z,7.00
2023-02-17T14:40:07.762Z,7.00
2023-02-17T14:42:36.258Z,7.00
2023-02-17T14:45:03.311Z,7.00
2023-02-17T14:47:30.598Z,7.00
2023-02-17T14:49:57.664Z,7.10
2023-02-17T14:52:25.668Z,7.00
2023-02-17T14:54:52.715Z,7.10
2023-02-17T14:57:27.346Z,7.10
2023-02-17T14:59:57.901Z,7.10
2023-02-17T15:02:25.637Z,7.10
2023-02-17T15:04:52.696Z,7.10
2023-02-17T15:07:20.117Z,7.10
2023-02-17T15:09:49.052Z,7.10
2023-02-17T15:12:19.458Z,7.10
2023-02-17T15:14:49.798Z,7.10
2023-02-17T15:17:17.132Z,7.10
2023-02-17T15:19:44.948Z,7.10
2023-02-17T15:22:13.624Z,7.10
2023-02-17T15:24:41.027Z,7.10
2023-02-17T15:27:14.363Z,7.10
2023-02-17T15:29:41.327Z,7.10
2023-02-17T15:32:24.024Z,7.10
2023-02-17T15:34:51.136Z,7.20
2023-02-17T15:37:18.424Z,7.20
2023-02-17T15:39:45.337Z,7.10
2023-02-17T15:42:14.410Z,7.10
2023-02-17T15:44:45.487Z,7.10
2023-02-17T15:47:18.080Z,7.20
2023-02-17T15:49:45.695Z,7.10
2023-02-17T15:52:14.334Z,7.20
2023-02-17T15:54:42.834Z,7.10
2023-02-17T15:57:22.146Z,7.20
2023-02-17T15:59:49.340Z,7.20
2023-02-17T16:02:23.347Z,7.20
2023-02-17T16:04:50.657Z,7.20
2023-02-17T16:07:18.027Z,7.20
2023-02-17T16:09:45.007Z,7.20
2023-02-17T16:12:18.812Z,7.20
2023-02-17T16:14:48.238Z,7.10
2023-02-17T16:17:16.951Z,7.20
2023-02-17T16:19:43.962Z,7.20
2023-02-17T16:22:11.513Z,7.20
2023-02-17T16:24:38.585Z,7.10
2023-02-17T16:27:10.028Z,7.20
2023-02-17T16:29:37.065Z,7.20
2023-02-17T16:32:04.595Z,7.20
2023-02-17T16:34:33.538Z,7.20
2023-02-17T16:37:11.154Z,7.20
2023-02-17T16:39:39.332Z,7.30
2023-02-17T16:42:06.635Z,7.30
2023-02-17T16:44:33.599Z,7.30
2023-02-17T16:47:02.669Z,7.30
2023-02-17T16:49:37.724Z,7.30
2023-02-17T16:52:08.095Z,7.30
2023-02-17T16:54:35.824Z,7.30
2023-02-17T16:57:03.479Z,7.40
2023-02-17T16:59:30.512Z,7.40
2023-02-17T17:01:58.173Z,7.40
2023-02-17T17:04:25.202Z,7.40
2023-02-17T17:06:52.811Z,7.50
2023-02-17T17:09:23.197Z,7.50
2023-02-17T17:11:50.942Z,7.50
2023-02-17T17:14:18.966Z,7.60
2023-02-17T17:16:58.274Z,7.60
2023-02-17T17:19:25.402Z,7.60
2023-02-17T17:21:52.751Z,7.70
2023-02-17T17:24:20.002Z,7.70
2023-02-17T17:26:50.163Z,7.70
2023-02-17T17:29:19.489Z,7.70
2023-02-17T17:31:47.305Z,7.70
2023-02-17T17:34:14.512Z,7.80
2023-02-17T17:36:45.072Z,7.80
2023-02-17T17:39:21.460Z,7.90
2023-02-17T17:41:50.312Z,7.90
2023-02-17T17:44:17.498Z,7.90
2023-02-17T17:46:44.881Z,8.00
2023-02-17T17:49:13.905Z,8.00
2023-02-17T17:51:41.223Z,8.00
2023-02-17T17:54:08.366Z,8.00
2023-02-17T17:56:39.214Z,8.10
2023-02-17T17:59:06.918Z,8.10
2023-02-17T18:01:34.660Z,8.10
2023-02-17T18:04:02.221Z,8.10
2023-02-17T18:06:47.244Z,8.10
2023-02-17T18:09:31.147Z,8.10
2023-02-17T18:12:04.548Z,8.10
2023-02-17T18:14:32.636Z,8.10
2023-02-17T18:17:00.523Z,8.10
2023-02-17T18:19:29.381Z,8.10
2023-02-17T18:21:56.917Z,8.10
2023-02-17T18:24:23.861Z,8.10
2023-02-17T18:26:52.254Z,8.10
2023-02-17T18:29:19.937Z,8.20
2023-02-17T18:31:47.773Z,8.10
2023-02-17T18:34:15.017Z,8.20
2023-02-17T18:36:42.289Z,8.10
2023-02-17T18:39:09.280Z,8.20
2023-02-17T18:41:36.908Z,8.20
2023-02-17T18:44:05.276Z,8.20
2023-02-17T18:46:33.393Z,8.20
2023-02-17T18:49:00.708Z,8.20
2023-02-17T18:51:31.129Z,8.20
2023-02-17T18:53:59.481Z,8.30
2023-02-17T18:56:29.758Z,8.30
2023-02-17T18:58:57.187Z,8.30
2023-02-17T19:01:36.254Z,8.30
2023-02-17T19:04:04.900Z,8.30
2023-02-17T19:06:34.934Z,8.30
2023-02-17T19:09:04.337Z,8.40
2023-02-17T19:11:33.688Z,8.40
2023-02-17T19:14:02.032Z,8.50
2023-02-17T19:16:31.420Z,8.50
2023-02-17T19:18:59.596Z,8.50
2023-02-17T19:21:27.362Z,8.60
2023-02-17T19:23:54.574Z,8.70
2023-02-17T19:26:22.288Z,8.70
2023-02-17T19:28:49.314Z,8.70
2023-02-17T19:31:19.538Z,8.70
2023-02-17T19:33:47.044Z,8.80
2023-02-17T19:36:17.252Z,8.90
2023-02-17T19:38:44.456Z,8.90
2023-02-17T19:41:12.969Z,8.90
2023-02-17T19:43:41.047Z,9.00
2023-02-17T19:46:15.437Z,9.00
2023-02-17T19:48:42.560Z,9.00
2023-02-17T19:51:12.364Z,9.00
2023-02-17T19:53:39.879Z,9.00
2023-02-17T19:56:11.583Z,9.00
2023-02-17T19:58:39.784Z,9.10
2023-02-17T20:01:13.059Z,9.00
2023-02-17T20:03:40.536Z,9.00
2023-02-17T20:06:10.307Z,9.00
2023-02-17T20:08:38.080Z,9.00
2023-02-17T20:11:09.281Z,9.00
2023-02-17T20:13:45.588Z,9.10
2023-02-17T20:16:15.717Z,9.10
2023-02-17T20:18:45.616Z,9.00
2023-02-17T20:21:24.948Z,9.00
2023-02-17T20:23:52.813Z,9.10
2023-02-17T20:26:25.429Z,9.10
2023-02-17T20:28:52.929Z,9.10
2023-02-17T20:31:20.987Z,9.10
2023-02-17T20:33:48.290Z,9.10
2023-02-17T20:36:16.142Z,9.10
2023-02-17T20:38:43.382Z,9.10
2023-02-17T20:41:14.989Z,9.10
2023-02-17T20:43:41.953Z,9.10
2023-02-17T20:46:18.877Z,9.10
2023-02-17T20:48:46.566Z,9.10
2023-02-17T20:51:14.272Z,9.10
2023-02-17T20:53:41.192Z,9.10
2023-02-17T20:56:18.044Z,9.00
2023-02-17T20:58:46.124Z,9.00
2023-02-17T21:01:13.835Z,8.90
2023-02-17T21:03:41.131Z,8.70
2023-02-17T21:06:30.110Z,8.50
2023-02-17T21:09:04.146Z,8.40
2023-02-17T21:11:31.977Z,8.30
2023-02-17T21:13:59.140Z,8.20
2023-02-17T21:16:30.985Z,8.20
2023-02-17T21:18:59.086Z,8.20
2023-02-17T21:21:27.879Z,8.10
2023-02-17T21:23:55.997Z,8.10
2023-02-17T21:26:24.085Z,8.10
2023-02-17T21:28:51.153Z,8.10
2023-02-17T21:31:19.005Z,8.10
2023-02-17T21:33:46.079Z,8.10
2023-02-17T21:36:16.508Z,8.00
2023-02-17T21:38:43.986Z,8.00
2023-02-17T21:41:13.991Z,8.00
2023-02-17T21:44:00.097Z,8.00
2023-02-17T21:46:28.249Z,8.00
2023-02-17T21:48:56.998Z,8.00
2023-02-17T21:51:24.702Z,7.90
2023-02-17T21:53:52.827Z,7.80
2023-02-17T21:56:22.358Z,7.60
2023-02-17T21:58:51.677Z,7.50
2023-02-17T22:01:21.123Z,7.30
2023-02-17T22:03:48.469Z,7.30
2023-02-17T22:06:24.972Z,7.20
2023-02-17T22:08:52.672Z,7.20
2023-02-17T22:11:26.081Z,7.20
2023-02-17T22:14:06.484Z,7.20
2023-02-17T22:16:35.816Z,7.10
2023-02-17T22:19:04.744Z,7.20
2023-02-17T22:21:32.944Z,7.20
2023-02-17T22:24:02.997Z,7.10
2023-02-17T22:26:31.266Z,7.10
2023-02-17T22:28:58.772Z,7.00
2023-02-17T22:31:28.677Z,6.90
2023-02-17T22:34:04.233Z,6.80
2023-02-17T22:36:34.565Z,6.80
2023-02-17T22:39:02.697Z,6.70
2023-02-17T22:41:30.253Z,6.70
2023-02-17T22:43:57.297Z,6.80
2023-02-17T22:46:27.141Z,6.70
2023-02-17T22:48:56.117Z,6.70
2023-02-17T22:51:30.208Z,6.70
2023-02-17T22:53:57.928Z,6.70
2023-02-17T22:56:25.326Z,6.70
2023-02-17T22:58:58.015Z,6.70
2023-02-17T23:01:25.541Z,6.70
2023-02-17T23:03:54.605Z,6.80
2023-02-17T23:06:29.492Z,6.80
2023-02-17T23:08:57.657Z,6.70
2023-02-17T23:11:49.588Z,6.70
2023-02-17T23:14:26.981Z,6.70
2023-02-17T23:16:58.192Z,6.70
2023-02-17T23:19:25.326Z,6.60
2023-02-17T23:21:55.799Z,6.70
2023-02-17T23:24:25.039Z,6.70
2023-02-17T23:26:53.452Z,6.70
2023-02-17T23:29:20.570Z,6.80
2023-02-17T23:31:47.901Z,6.80
2023-02-17T23:34:16.065Z,6.70
2023-02-17T23:36:45.990Z,6.70
2023-02-17T23:39:13.914Z,6.70
2023-02-17T23:41:41.617Z,6.70
2023-02-17T23:44:10.968Z,6.80
2023-02-17T23:46:38.729Z,6.80
2023-02-17T23:49:06.181Z,6.80
2023-02-17T23:51:33.865Z,6.80
2023-02-17T23:54:01.198Z,6.70
2023-02-17T23:56:32.344Z,6.70
2023-02-17T23:59:00.109Z,6.70
